Summit, South Dakota
Current Conditions -  °F | °C
As of 9:42 PM on Saturday 24 Jan 2015 (Local Time) from KATY Reporting Station
Light Snow Light Snow  
Wind Chill: -6°   Ceiling: 700
Heat Index:   Visibility: 2mi
Dew Point: -1°   Wind: 14mph
Humidity: 92%   Direction: 10°N
Pressure: 29.64"   Gusts: NA
Location:  45.3°N, 97.04°W
Report Text: KATY 250342Z AUTO 01012KT 2SM -SN BR OVC007 00/M01 A2964 RMK AO2 CIG 004V010 P0001 T00001011
Loading
Personal Weather Stations






























Interactive Weather Map New forecast layout! Learn more

10-Day Weather Forecast

Advertisements
Track Severe Weather on mobile